Time;durP1;ratioP1;P1;durP2;ratioP2;P2;SDS_P1;SDS_P2;PMS_P1;PMS_P2;Temp;Humidity;BMP_temperature;BMP_pressure;BME280_temperature;BME280_humidity;BME280_pressure;Samples;Min_cycle;Max_cycle;Signal;HPM_P1;HPM_P2
2021/05/28 00:01:51;;;;;;;16.30;12.57;;;;;;;20.14;59.96;94869.06;5052043;28;20447;-72
2021/05/28 00:04:18;;;;;;;15.03;12.73;;;;;;;20.21;60.10;94876.63;5057477;28;20484;-70
2021/05/28 00:06:46;;;;;;;14.73;12.17;;;;;;;20.24;59.57;94867.25;5057565;28;20812;-71
2021/05/28 00:09:13;;;;;;;15.10;11.23;;;;;;;20.33;59.51;94871.41;5059935;28;20447;-73
2021/05/28 00:11:41;;;;;;;13.27;11.23;;;;;;;20.40;59.18;94866.38;5051789;28;20439;-72
2021/05/28 00:14:08;;;;;;;12.30;10.77;;;;;;;20.29;59.62;94859.84;5050110;28;20658;-73
2021/05/28 00:16:36;;;;;;;12.97;11.70;;;;;;;20.26;59.59;94859.69;5067330;28;20442;-71
2021/05/28 00:19:03;;;;;;;14.33;11.53;;;;;;;20.20;60.18;94861.72;5071043;28;20508;-72
2021/05/28 00:21:30;;;;;;;13.30;11.63;;;;;;;20.29;59.64;94870.47;5056288;28;20450;-72
2021/05/28 00:23:57;;;;;;;15.60;11.93;;;;;;;20.33;59.00;94860.00;5057557;28;20493;-72
2021/05/28 00:26:24;;;;;;;17.23;12.50;;;;;;;20.30;59.51;94860.63;5058510;28;20443;-71
2021/05/28 00:28:51;;;;;;;16.97;11.93;;;;;;;20.07;60.37;94852.81;5050365;28;20487;-74
2021/05/28 00:31:19;;;;;;;16.67;12.87;;;;;;;19.40;62.42;94842.97;5062092;28;20442;-75
2021/05/28 00:33:46;;;;;;;16.77;12.67;;;;;;;19.50;62.24;94832.84;5053431;28;21331;-72
2021/05/28 00:36:14;;;;;;;15.07;11.73;;;;;;;19.13;62.79;94815.56;5061059;28;20442;-73
2021/05/28 00:38:41;;;;;;;15.50;12.17;;;;;;;18.75;64.94;94830.47;5066430;28;20544;-74
2021/05/28 00:41:08;;;;;;;15.20;12.43;;;;;;;19.19;63.38;94803.72;5062605;28;20438;-74
2021/05/28 00:43:35;;;;;;;15.83;12.00;;;;;;;19.53;62.49;94799.50;5069972;28;20474;-71
2021/05/28 00:46:02;;;;;;;14.17;12.70;;;;;;;19.10;63.31;94807.44;5069662;28;20450;-73
2021/05/28 00:48:29;;;;;;;16.33;12.20;;;;;;;18.84;63.12;94791.47;5069049;28;20857;-75
2021/05/28 00:50:56;;;;;;;14.50;12.73;;;;;;;19.37;61.94;94806.41;5071386;28;20487;-73
2021/05/28 00:53:25;;;;;;;15.50;12.43;;;;;;;19.66;61.24;94806.56;5070204;28;20438;-72
2021/05/28 00:55:52;;;;;;;16.73;11.87;;;;;;;19.44;61.03;94812.03;5071339;28;20446;-72
2021/05/28 00:58:19;;;;;;;16.17;12.23;;;;;;;18.98;62.44;94794.75;5070998;28;20440;-72
2021/05/28 01:00:48;;;;;;;18.67;12.07;;;;;;;19.38;61.32;94807.97;5070045;28;20450;-72
2021/05/28 01:03:15;;;;;;;15.60;12.40;;;;;;;19.49;61.28;94804.69;5069677;28;20448;-72
2021/05/28 01:05:42;;;;;;;15.93;12.00;;;;;;;19.20;62.25;94802.59;5060667;28;20446;-72
2021/05/28 01:08:09;;;;;;;14.37;12.20;;;;;;;19.40;61.58;94805.75;5049144;28;20449;-72
2021/05/28 01:10:36;;;;;;;14.20;11.73;;;;;;;19.56;61.37;94782.97;5050307;28;20489;-73
2021/05/28 01:13:08;;;;;;;13.50;11.17;;;;;;;19.63;60.74;94791.25;5064337;28;20444;-72
2021/05/28 01:15:35;;;;;;;12.67;11.30;;;;;;;19.68;60.55;94807.03;5050974;28;20442;-71
2021/05/28 01:18:04;;;;;;;13.60;11.17;;;;;;;19.59;61.20;94792.97;5049965;28;20493;-73
2021/05/28 01:20:31;;;;;;;15.50;12.43;;;;;;;19.60;60.73;94800.63;5070053;28;20442;-73
2021/05/28 01:23:00;;;;;;;12.67;11.23;;;;;;;19.57;60.96;94787.16;5069709;28;20940;-73
2021/05/28 01:25:28;;;;;;;13.43;11.90;;;;;;;19.73;60.50;94788.25;5051564;28;20520;-73
2021/05/28 01:27:55;;;;;;;14.13;11.73;;;;;;;19.81;60.14;94792.78;5059747;28;20454;-74
2021/05/28 01:30:41;;;;;;;14.23;12.73;;;;;;;19.92;60.12;94796.69;5052639;28;20443;-73
2021/05/28 01:33:09;;;;;;;15.40;12.33;;;;;;;19.92;60.05;94812.63;5050056;28;20479;-74
2021/05/28 01:35:36;;;;;;;16.13;12.13;;;;;;;19.83;60.42;94794.03;5049748;28;21012;-74
2021/05/28 01:38:05;;;;;;;14.33;11.60;;;;;;;19.73;60.79;94804.19;5063719;28;20473;-73
2021/05/28 01:40:33;;;;;;;14.07;12.23;;;;;;;19.83;60.69;94804.69;5056538;28;20426;-76
2021/05/28 01:43:00;;;;;;;17.30;12.07;;;;;;;19.60;61.08;94805.13;5069544;28;20438;-72
2021/05/28 01:45:27;;;;;;;16.67;11.87;;;;;;;19.55;61.26;94807.97;5068730;28;20478;-71
2021/05/28 01:47:54;;;;;;;13.57;12.17;;;;;;;19.68;60.65;94807.03;5070182;28;20471;-72
2021/05/28 01:50:21;;;;;;;14.77;11.57;;;;;;;19.61;60.47;94796.09;5069702;28;20491;-72
2021/05/28 01:52:48;;;;;;;13.63;12.03;;;;;;;19.66;60.72;94793.25;5069959;28;20540;-72
2021/05/28 01:55:16;;;;;;;17.67;11.77;;;;;;;19.28;61.58;94792.28;5054227;28;20442;-72
2021/05/28 01:57:43;;;;;;;15.90;11.27;;;;;;;19.06;62.15;94796.66;5057761;28;20446;-73
2021/05/28 02:00:13;;;;;;;17.50;11.23;;;;;;;19.16;61.37;94775.09;5069542;28;21090;-74
2021/05/28 02:02:40;;;;;;;13.63;11.30;;;;;;;18.94;62.32;94777.88;5073389;28;20975;-72
2021/05/28 02:05:09;;;;;;;13.50;10.77;;;;;;;19.06;62.31;94779.94;5056844;28;20850;-73
2021/05/28 02:07:37;;;;;;;13.60;10.83;;;;;;;19.04;61.96;94772.28;5050222;28;20588;-73
2021/05/28 02:10:05;;;;;;;12.53;11.23;;;;;;;19.26;60.94;94767.91;5067889;28;20445;-74
2021/05/28 02:12:33;;;;;;;13.53;10.47;;;;;;;19.12;61.67;94778.69;5059393;28;20439;-74
2021/05/28 02:15:00;;;;;;;13.10;10.33;;;;;;;19.10;61.63;94784.31;5051248;28;20468;-73
2021/05/28 02:17:29;;;;;;;16.90;11.20;;;;;;;18.94;61.90;94779.78;5061213;28;20447;-73
2021/05/28 02:19:56;;;;;;;14.87;10.63;;;;;;;19.02;61.83;94779.78;5066809;28;20446;-74
2021/05/28 02:22:23;;;;;;;12.87;10.50;;;;;;;19.01;62.00;94780.84;5066163;28;20447;-74
2021/05/28 02:25:10;;;;;;;11.50;10.30;;;;;;;18.79;62.25;94765.06;5053120;28;20976;-73
2021/05/28 02:27:37;;;;;;;15.20;10.17;;;;;;;18.68;63.44;94774.41;5053738;28;20434;-73
2021/05/28 02:30:06;;;;;;;12.80;10.80;;;;;;;18.27;64.62;94773.91;5052674;28;20461;-73
2021/05/28 02:32:33;;;;;;;18.00;11.53;;;;;;;18.48;63.72;94769.66;5061595;28;20441;-73
2021/05/28 02:35:00;;;;;;;18.80;10.90;;;;;;;18.40;63.98;94767.72;5059855;28;20445;-73
2021/05/28 02:37:28;;;;;;;17.67;12.03;;;;;;;18.51;63.72;94760.28;5073512;28;20445;-73
2021/05/28 02:39:57;;;;;;;15.60;11.03;;;;;;;18.52;63.63;94775.88;5072398;28;20440;-72
2021/05/28 02:42:24;;;;;;;16.67;10.00;;;;;;;18.74;63.89;94769.72;5065623;28;20975;-75
2021/05/28 02:44:52;;;;;;;12.03;10.33;;;;;;;18.95;62.51;94757.44;5066313;28;20520;-74
2021/05/28 02:47:22;;;;;;;14.63;9.83;;;;;;;19.03;62.48;94754.78;5073158;28;20535;-74
2021/05/28 02:49:50;;;;;;;13.47;10.00;;;;;;;19.12;62.16;94774.16;5072718;28;20450;-73
2021/05/28 02:52:17;;;;;;;16.17;11.33;;;;;;;19.23;61.59;94770.09;5073271;28;20438;-72
2021/05/28 02:54:44;;;;;;;14.30;10.63;;;;;;;19.07;61.61;94782.28;5072796;28;20445;-73
2021/05/28 02:57:12;;;;;;;17.30;10.57;;;;;;;18.82;62.47;94785.66;5055201;28;20439;-73
2021/05/28 02:59:39;;;;;;;16.87;11.43;;;;;;;19.02;61.86;94785.09;5061973;28;20434;-74
2021/05/28 03:02:06;;;;;;;14.37;10.23;;;;;;;19.15;61.77;94780.72;5057716;28;20906;-73
2021/05/28 03:04:33;;;;;;;16.20;11.07;;;;;;;19.02;61.58;94763.84;5059630;28;21087;-73
2021/05/28 03:07:02;;;;;;;15.47;10.87;;;;;;;19.06;62.13;94780.72;5060189;28;20448;-71
2021/05/28 03:09:29;;;;;;;12.13;10.80;;;;;;;19.35;61.71;94797.94;5058611;28;21468;-73
2021/05/28 03:11:56;;;;;;;17.20;11.10;;;;;;;19.34;61.69;94783.13;5052389;28;20443;-74
2021/05/28 03:14:23;;;;;;;14.10;10.77;;;;;;;19.36;61.45;94796.88;5064631;28;21349;-72
2021/05/28 03:16:50;;;;;;;20.50;11.90;;;;;;;19.67;60.05;94802.81;5054110;28;20454;-72
2021/05/28 03:19:22;;;;;;;13.07;10.53;;;;;;;19.60;60.20;94815.78;5052049;28;20443;-71
2021/05/28 03:24:35;;;;;;;13.53;10.90;;;;;;;19.39;60.94;94805.00;5060256;28;21095;-73
2021/05/28 03:27:02;;;;;;;18.17;10.20;;;;;;;19.67;60.85;94808.13;5066603;28;20447;-71
2021/05/28 03:29:29;;;;;;;13.00;10.60;;;;;;;19.85;60.07;94813.09;5053383;28;20474;-73
2021/05/28 03:31:57;;;;;;;13.97;10.73;;;;;;;19.76;60.53;94814.22;5067335;28;20452;-72
2021/05/28 03:34:25;;;;;;;12.70;9.70;;;;;;;19.61;61.06;94810.16;5060925;28;21042;-72
2021/05/28 03:36:52;;;;;;;16.50;10.93;;;;;;;19.54;61.87;94803.75;5061599;28;20446;-72
2021/05/28 03:39:19;;;;;;;14.57;11.13;;;;;;;19.65;62.06;94792.47;5072349;28;20449;-72
2021/05/28 03:41:46;;;;;;;15.07;10.73;;;;;;;19.64;61.39;94792.78;5072579;28;20831;-72
2021/05/28 03:44:14;;;;;;;15.80;10.80;;;;;;;19.75;61.31;94802.00;5071874;28;21058;-73
2021/05/28 03:46:42;;;;;;;14.73;11.80;;;;;;;19.68;61.26;94801.72;5072177;28;20516;-74
2021/05/28 03:49:09;;;;;;;18.23;11.70;;;;;;;19.54;61.19;94833.00;5072551;28;20465;-73
2021/05/28 03:51:36;;;;;;;15.40;12.00;;;;;;;19.91;60.49;94843.75;5072344;28;20445;-72
2021/05/28 03:54:03;;;;;;;16.97;12.03;;;;;;;19.69;61.25;94851.13;5071136;28;20673;-76
2021/05/28 03:56:30;;;;;;;16.57;11.77;;;;;;;19.45;62.60;94850.81;5072092;28;20446;-73
2021/05/28 03:58:57;;;;;;;18.67;12.93;;;;;;;19.47;62.97;94849.38;5071608;28;20438;-74
2021/05/28 04:01:24;;;;;;;16.80;12.20;;;;;;;19.19;63.71;94854.19;5071800;28;20438;-73
2021/05/28 04:03:51;;;;;;;14.13;11.87;;;;;;;19.05;63.45;94829.59;5070817;28;20446;-74
2021/05/28 04:06:18;;;;;;;14.63;11.63;;;;;;;19.47;62.73;94827.38;5056833;28;20486;-73
2021/05/28 04:08:45;;;;;;;11.67;10.47;;;;;;;19.23;63.01;94848.25;5051453;28;20481;-74
2021/05/28 04:11:11;;;;;;;16.77;11.10;;;;;;;19.44;61.65;94841.25;5057984;28;20435;-73
2021/05/28 04:13:38;;;;;;;14.23;10.80;;;;;;;19.64;61.63;94830.78;5055040;28;20492;-73
2021/05/28 04:16:06;;;;;;;15.73;11.33;;;;;;;19.46;62.72;94825.78;5066751;28;20441;-75
2021/05/28 04:18:32;;;;;;;13.07;10.70;;;;;;;19.43;62.30;94824.56;5067032;28;20469;-74
2021/05/28 04:20:59;;;;;;;12.23;10.67;;;;;;;19.48;61.36;94820.94;5061657;28;20531;-72
2021/05/28 04:23:26;;;;;;;15.30;11.63;;;;;;;19.50;62.08;94800.94;5068442;28;21002;-74
2021/05/28 04:25:53;;;;;;;14.27;11.33;;;;;;;19.36;61.38;94810.16;5060178;28;20577;-74
2021/05/28 04:28:20;;;;;;;12.47;10.23;;;;;;;19.21;62.17;94809.47;5056638;28;20474;-73
2021/05/28 04:30:47;;;;;;;18.07;11.67;;;;;;;19.25;63.58;94814.19;5055003;28;20436;-73
2021/05/28 04:33:14;;;;;;;16.33;11.37;;;;;;;19.25;63.62;94814.19;5069803;28;20450;-73
2021/05/28 04:35:41;;;;;;;13.93;11.20;;;;;;;19.17;62.70;94816.53;5056942;28;20436;-74
2021/05/28 04:38:08;;;;;;;31.60;27.17;;;;;;;19.23;63.29;94821.69;5069382;28;20544;-74
2021/05/28 04:40:35;;;;;;;112.53;75.27;;;;;;;19.43;63.14;94810.47;5050812;28;20530;-72
2021/05/28 04:43:02;;;;;;;40.87;32.50;;;;;;;19.62;63.39;94824.22;5062885;28;20541;-72
2021/05/28 04:45:29;;;;;;;19.77;15.47;;;;;;;19.66;62.94;94823.28;5065647;28;20505;-73
2021/05/28 04:47:56;;;;;;;65.83;49.97;;;;;;;19.86;62.97;94819.19;5061868;28;20446;-73
2021/05/28 04:50:30;;;;;;;103.20;81.20;;;;;;;19.91;62.51;94816.38;5055074;28;20443;-72
2021/05/28 04:53:00;;;;;;;24.10;19.77;;;;;;;20.01;61.60;94816.06;5061418;28;20438;-73
2021/05/28 04:55:28;;;;;;;15.47;13.80;;;;;;;20.08;61.19;94821.69;5053399;28;20439;-73
2021/05/28 04:57:55;;;;;;;13.73;11.03;;;;;;;20.15;60.89;94811.31;5050689;28;20947;-73
2021/05/28 05:00:23;;;;;;;13.60;10.20;;;;;;;20.09;61.13;94813.38;5064446;28;20867;-70
2021/05/28 05:02:51;;;;;;;12.60;10.97;;;;;;;20.01;61.19;94826.69;5057620;28;20446;-70
2021/05/28 05:05:18;;;;;;;14.97;12.10;;;;;;;19.85;61.71;94817.66;5063758;28;20486;-75
2021/05/28 05:07:47;;;;;;;15.27;11.53;;;;;;;19.91;62.34;94827.81;5063967;28;20495;-71
2021/05/28 05:10:14;;;;;;;15.17;11.57;;;;;;;20.14;61.76;94831.06;5070334;28;20443;-71
2021/05/28 05:12:41;;;;;;;18.37;12.80;;;;;;;20.31;61.62;94830.28;5070950;28;20529;-74
2021/05/28 05:15:10;;;;;;;15.43;11.83;;;;;;;19.86;62.60;94845.78;5052125;28;20435;-72
2021/05/28 05:17:38;;;;;;;15.67;11.27;;;;;;;20.14;62.46;94841.69;5050421;28;20441;-70
2021/05/28 05:20:07;;;;;;;176.63;157.27;;;;;;;20.27;62.01;94848.75;5050665;28;20451;-72
2021/05/28 05:22:34;;;;;;;27.63;22.03;;;;;;;20.30;61.37;94845.44;5050276;28;20877;-70
2021/05/28 05:25:03;;;;;;;19.43;14.17;;;;;;;19.86;62.39;94841.28;5050087;28;20474;-71
2021/05/28 05:27:30;;;;;;;14.13;11.77;;;;;;;19.85;62.53;94860.19;5058362;28;20955;-70
2021/05/28 05:29:57;;;;;;;15.43;11.57;;;;;;;19.67;63.13;94863.97;5070027;28;20495;-69
2021/05/28 05:32:24;;;;;;;15.87;10.97;;;;;;;20.02;61.77;94850.31;5056696;28;20442;-69
2021/05/28 05:34:53;;;;;;;10.83;8.37;;;;;;;19.43;61.26;94858.31;5057309;28;20450;-74
2021/05/28 05:37:20;;;;;;;13.80;8.53;;;;;;;19.52;60.47;94864.41;5055194;28;20438;-72
2021/05/28 05:39:48;;;;;;;12.93;8.67;;;;;;;19.75;60.51;94860.50;5067315;28;20481;-71
2021/05/28 05:42:15;;;;;;;10.43;7.50;;;;;;;19.66;60.49;94867.69;5053206;28;20458;-68
2021/05/28 05:44:43;;;;;;;10.87;8.03;;;;;;;19.75;60.65;94863.16;5059256;28;20536;-65
2021/05/28 05:47:10;;;;;;;12.60;7.70;;;;;;;19.65;60.21;94872.22;5063092;28;20522;-73
2021/05/28 05:49:37;;;;;;;16.27;7.70;;;;;;;19.55;59.56;94861.91;5049861;28;20478;-75
2021/05/28 05:52:05;;;;;;;9.57;8.03;;;;;;;19.43;60.59;94859.09;5052782;28;20444;-68
2021/05/28 05:54:32;;;;;;;9.80;8.23;;;;;;;19.67;60.54;94866.63;5059299;28;21465;-74
2021/05/28 05:56:59;;;;;;;9.20;8.27;;;;;;;19.22;60.51;94860.72;5056523;28;20438;-72
2021/05/28 05:59:28;;;;;;;12.10;9.87;;;;;;;19.37;60.99;94864.84;5052953;28;20439;-72
2021/05/28 06:01:56;;;;;;;17.00;9.83;;;;;;;19.72;60.20;94869.13;5065252;28;20445;-69
2021/05/28 06:04:23;;;;;;;12.97;9.43;;;;;;;19.77;59.80;94863.63;5054126;28;20446;-72
2021/05/28 06:06:51;;;;;;;12.83;9.17;;;;;;;19.40;61.09;94874.84;5057938;28;20466;-67
2021/05/28 06:09:17;;;;;;;11.33;9.37;;;;;;;19.90;60.01;94862.69;5058636;28;20439;-76
2021/05/28 06:11:44;;;;;;;13.77;8.73;;;;;;;19.64;60.34;94864.56;5065045;28;20496;-83
2021/05/28 06:14:12;;;;;;;13.67;9.03;;;;;;;19.98;59.92;94859.25;5070562;28;20510;-68
2021/05/28 06:16:39;;;;;;;13.77;8.70;;;;;;;19.71;59.09;94864.88;5056356;28;20449;-71
2021/05/28 06:19:06;;;;;;;10.00;7.70;;;;;;;19.61;59.42;94862.53;5070741;28;20492;-76
2021/05/28 06:21:33;;;;;;;8.97;6.60;;;;;;;19.58;59.24;94865.84;5056529;28;20449;-75
2021/05/28 06:24:02;;;;;;;11.03;7.27;;;;;;;19.67;59.19;94869.28;5062928;28;21152;-70
2021/05/28 06:26:33;;;;;;;14.43;6.30;;;;;;;19.66;58.26;94862.38;5050226;28;20486;-70
2021/05/28 06:29:02;;;;;;;9.47;5.23;;;;;;;19.93;56.87;94846.09;5049846;28;20576;-69
2021/05/28 06:31:29;;;;;;;10.07;4.53;;;;;;;19.70;56.78;94858.00;5062768;28;20434;-70
2021/05/28 06:33:56;;;;;;;6.97;4.83;;;;;;;19.80;57.17;94869.09;5050503;28;20439;-76
2021/05/28 06:36:23;;;;;;;7.80;4.77;;;;;;;19.96;56.66;94856.13;5060534;28;20465;-73
2021/05/28 06:38:50;;;;;;;9.67;5.63;;;;;;;20.02;56.32;94857.50;5055967;28;20446;-70
2021/05/28 06:41:18;;;;;;;6.20;5.00;;;;;;;19.91;56.83;94869.56;5070010;28;20563;-71
2021/05/28 06:43:44;;;;;;;8.10;4.93;;;;;;;19.97;57.55;94863.00;5069334;28;20442;-67
2021/05/28 06:46:12;;;;;;;5.77;4.47;;;;;;;20.16;56.19;94863.47;5070885;28;20482;-72
2021/05/28 06:48:39;;;;;;;12.07;4.70;;;;;;;20.35;56.99;94853.25;5069885;28;20487;-75
2021/05/28 06:51:06;;;;;;;12.63;4.87;;;;;;;20.20;56.08;94856.41;5068517;28;20843;-76
2021/05/28 06:53:33;;;;;;;8.37;4.70;;;;;;;20.18;56.57;94855.97;5069376;28;20446;-71
2021/05/28 06:56:00;;;;;;;7.50;4.30;;;;;;;20.78;57.43;94848.56;5070020;28;20434;-73
2021/05/28 06:58:28;;;;;;;5.73;4.20;;;;;;;20.74;55.18;94850.31;5055966;28;20438;-72
2021/05/28 07:00:56;;;;;;;4.47;3.30;;;;;;;20.78;54.32;94843.22;5049704;28;20963;-70
2021/05/28 07:03:26;;;;;;;8.40;3.97;;;;;;;20.67;55.06;94844.72;5062110;28;20438;-76
2021/05/28 07:05:53;;;;;;;4.43;3.90;;;;;;;21.13;54.19;94846.53;5051423;28;20477;-73
2021/05/28 07:08:20;;;;;;;4.40;3.50;;;;;;;21.20;53.55;94846.06;5056948;28;20470;-71
2021/05/28 07:10:46;;;;;;;6.90;3.57;;;;;;;21.26;53.54;94839.44;5062558;28;20969;-72
2021/05/28 07:13:13;;;;;;;6.93;3.70;;;;;;;21.57;55.13;94843.28;5052450;28;20446;-73
2021/05/28 07:15:40;;;;;;;5.33;2.87;;;;;;;21.68;51.64;94835.66;5053233;28;21034;-71
2021/05/28 07:18:07;;;;;;;8.80;3.37;;;;;;;22.00;51.35;94842.97;5053097;28;20446;-76
2021/05/28 07:20:35;;;;;;;17.80;4.80;;;;;;;21.92;50.82;94835.81;5074106;28;20192;-71
2021/05/28 07:23:01;;;;;;;3.77;3.37;;;;;;;21.73;49.03;94832.81;5073584;28;20446;-69
2021/05/28 07:25:28;;;;;;;6.03;3.47;;;;;;;21.66;49.27;94835.22;5058503;28;20212;-75
2021/05/28 07:27:56;;;;;;;4.33;3.07;;;;;;;21.67;47.97;94834.13;5072969;28;20438;-71
2021/05/28 07:30:23;;;;;;;4.50;3.50;;;;;;;21.64;47.33;94845.44;5054891;28;20188;-78
2021/05/28 07:32:50;;;;;;;4.10;3.60;;;;;;;21.98;46.01;94845.19;5052507;28;20204;-71
2021/05/28 07:35:17;;;;;;;6.53;3.90;;;;;;;21.54;46.19;94840.47;5066450;28;20200;-65
2021/05/28 07:37:44;;;;;;;7.53;4.37;;;;;;;21.45;46.77;94847.75;5069498;28;20474;-72
2021/05/28 07:40:13;;;;;;;24.20;5.73;;;;;;;21.29;47.45;94844.91;5071968;28;20439;-72
2021/05/28 07:42:39;;;;;;;17.43;6.37;;;;;;;21.04;48.18;94838.59;5062793;28;20944;-72
2021/05/28 07:45:08;;;;;;;12.07;6.63;;;;;;;21.29;48.64;94860.09;5054253;28;20856;-70
2021/05/28 07:47:35;;;;;;;23.73;7.90;;;;;;;20.93;49.40;94853.34;5072233;28;20885;-69
2021/05/28 07:50:05;;;;;;;13.33;7.17;;;;;;;20.77;49.10;94862.19;5071824;28;20422;-71
2021/05/28 07:52:32;;;;;;;13.87;6.63;;;;;;;20.80;49.53;94850.94;5065298;28;20447;-76
2021/05/28 07:54:59;;;;;;;9.77;6.77;;;;;;;20.77;48.77;94852.34;5065140;28;20445;-75
2021/05/28 07:57:25;;;;;;;11.33;7.07;;;;;;;20.55;49.83;94863.22;5066414;28;20492;-69
2021/05/28 07:59:52;;;;;;;9.90;7.00;;;;;;;20.85;49.68;94867.50;5058899;28;20550;-70
2021/05/28 08:02:19;;;;;;;10.17;6.30;;;;;;;20.82;49.31;94860.16;5066120;28;20795;-72
2021/05/28 08:04:46;;;;;;;9.27;6.23;;;;;;;20.69;50.12;94877.09;5051460;28;20443;-67
2021/05/28 08:07:13;;;;;;;9.37;6.30;;;;;;;20.49;50.59;94883.13;5060809;28;21022;-72
2021/05/28 08:09:40;;;;;;;11.10;5.97;;;;;;;20.30;51.08;94872.06;5056934;28;20504;-75
2021/05/28 08:12:07;;;;;;;10.17;5.27;;;;;;;20.52;50.73;94885.16;5071681;28;20800;-72
2021/05/28 08:14:35;;;;;;;11.63;6.27;;;;;;;20.10;51.68;94893.97;5058513;28;20435;-68
2021/05/28 08:17:02;;;;;;;12.43;5.87;;;;;;;20.38;51.33;94884.59;5070729;28;20448;-70
2021/05/28 08:19:29;;;;;;;11.07;5.80;;;;;;;20.42;51.91;94900.69;5059093;28;20454;-68
2021/05/28 08:21:56;;;;;;;14.43;6.53;;;;;;;20.28;52.85;94911.50;5065715;28;20449;-71
2021/05/28 08:24:24;;;;;;;8.83;5.90;;;;;;;20.05;52.58;94912.75;5051637;28;20520;-70
2021/05/28 08:26:51;;;;;;;9.97;6.00;;;;;;;19.57;53.73;94920.84;5054113;28;20485;-72
2021/05/28 08:29:19;;;;;;;10.07;6.17;;;;;;;19.67;53.77;94919.78;5062132;28;20948;-71
2021/05/28 08:31:46;;;;;;;21.30;7.87;;;;;;;19.06;55.75;94931.31;5052083;28;20443;-69
2021/05/28 08:34:13;;;;;;;10.53;8.63;;;;;;;18.74;56.26;94947.59;5063943;28;20447;-70
2021/05/28 08:36:40;;;;;;;9.13;8.20;;;;;;;19.02;56.00;94940.97;5053814;28;20443;-69
2021/05/28 08:39:07;;;;;;;20.63;9.23;;;;;;;18.91;55.82;94943.13;5071434;28;20434;-66
2021/05/28 08:41:34;;;;;;;12.73;9.93;;;;;;;18.13;54.68;94943.72;5071944;28;20442;-67
2021/05/28 08:44:02;;;;;;;14.70;11.93;;;;;;;18.55;54.57;94955.75;5063739;28;20893;-69
2021/05/28 08:46:30;;;;;;;15.40;13.07;;;;;;;18.79;54.02;94974.00;5063381;28;20539;-73
2021/05/28 08:48:58;;;;;;;20.00;14.17;;;;;;;18.33;53.44;94958.38;5071077;28;20500;-69
2021/05/28 08:51:25;;;;;;;18.47;15.13;;;;;;;18.08;53.65;94977.53;5073551;28;20448;-73
2021/05/28 08:53:54;;;;;;;21.20;16.70;;;;;;;18.38;53.49;94992.75;5072112;28;20449;-73
2021/05/28 08:56:20;;;;;;;23.10;16.70;;;;;;;17.95;54.06;94981.00;5071632;28;20817;-70
2021/05/28 08:58:47;;;;;;;20.33;16.80;;;;;;;18.14;53.53;94986.94;5067836;28;20507;-72
2021/05/28 09:01:15;;;;;;;21.23;16.63;;;;;;;17.64;54.76;95009.25;5060179;28;20962;-70
2021/05/28 09:03:43;;;;;;;19.50;17.30;;;;;;;18.42;53.48;95020.28;5070540;28;20445;-70
2021/05/28 09:06:18;;;;;;;19.80;17.67;;;;;;;18.08;53.37;95022.63;5056684;28;20505;-67
2021/05/28 09:08:46;;;;;;;21.50;17.30;;;;;;;17.64;54.88;95041.03;5050657;28;20451;-68
2021/05/28 09:11:16;;;;;;;19.17;17.13;;;;;;;17.53;56.79;95034.38;5064784;28;20507;-69
2021/05/28 09:13:52;;;;;;;32.60;19.83;;;;;;;17.61;56.56;95041.63;5050391;28;20471;-69
2021/05/28 09:16:27;;;;;;;22.20;19.60;;;;;;;17.11;59.70;95046.78;5064112;28;20816;-72
2021/05/28 09:18:59;;;;;;;25.40;20.80;;;;;;;16.72;62.80;95062.25;5063185;28;20438;-67
2021/05/28 09:21:32;;;;;;;25.27;22.50;;;;;;;16.96;64.17;95049.69;5050623;28;20450;-71
2021/05/28 09:24:00;;;;;;;29.40;23.27;;;;;;;16.86;65.26;95060.44;5050523;28;20433;-68
2021/05/28 09:26:29;;;;;;;29.47;23.43;;;;;;;16.78;66.07;95071.69;5051996;28;20488;-67
2021/05/28 09:28:59;;;;;;;28.83;23.77;;;;;;;16.47;65.85;95060.00;5062677;28;20544;-70
2021/05/28 09:31:29;;;;;;;30.27;22.20;;;;;;;16.67;66.21;95070.28;5062542;28;20520;-73
2021/05/28 09:33:57;;;;;;;25.33;21.30;;;;;;;16.34;64.91;95076.56;5055718;28;20434;-70
2021/05/28 09:36:29;;;;;;;29.70;23.07;;;;;;;16.51;65.25;95071.59;5070191;28;20445;-69
2021/05/28 09:39:08;;;;;;;26.33;23.27;;;;;;;16.76;65.07;95063.25;5062623;28;20546;-67
2021/05/28 09:41:49;;;;;;;26.77;23.73;;;;;;;16.68;65.56;95060.47;5064650;28;20442;-72
2021/05/28 09:44:20;;;;;;;26.13;23.00;;;;;;;16.59;64.55;95068.28;5069831;28;20442;-72
2021/05/28 09:47:21;;;;;;;27.67;23.63;;;;;;;16.60;64.71;95064.56;5055828;28;21023;-70
2021/05/28 09:49:51;;;;;;;28.13;23.87;;;;;;;16.79;64.50;95060.00;5056642;28;20443;-73
2021/05/28 09:52:28;;;;;;;28.20;23.13;;;;;;;16.71;64.17;95063.34;5048562;28;20496;-70
2021/05/28 09:55:00;;;;;;;43.13;28.10;;;;;;;17.01;64.31;95054.88;5049965;28;20451;-71
2021/05/28 09:57:30;;;;;;;27.37;23.47;;;;;;;16.76;65.09;95067.75;5068867;28;20508;-67
2021/05/28 09:59:57;;;;;;;29.10;25.40;;;;;;;16.83;65.63;95061.00;5057621;28;20534;-71
2021/05/28 10:02:29;;;;;;;28.20;25.17;;;;;;;17.17;64.53;95064.13;5054118;28;20529;-71
2021/05/28 10:04:58;;;;;;;28.33;24.83;;;;;;;16.89;64.25;95054.56;5058496;28;20474;-71
2021/05/28 10:07:27;;;;;;;28.33;23.13;;;;;;;16.74;65.02;95059.31;5049794;28;21011;-67
2021/05/28 10:09:56;;;;;;;33.00;25.87;;;;;;;17.06;64.04;95062.72;5051538;28;20434;-70
2021/05/28 10:12:24;;;;;;;33.57;25.20;;;;;;;17.18;64.43;95065.72;5060973;28;20458;-73
2021/05/28 10:14:52;;;;;;;24.40;21.77;;;;;;;16.85;63.98;95066.81;5048971;28;20478;-70
2021/05/28 10:17:20;;;;;;;27.27;22.03;;;;;;;16.80;64.04;95058.16;5057818;28;20446;-72
2021/05/28 10:19:48;;;;;;;21.57;19.17;;;;;;;16.87;63.48;95064.66;5069199;28;20445;-70
2021/05/28 10:22:17;;;;;;;21.50;18.10;;;;;;;16.60;62.59;95063.78;5063461;28;20446;-68
2021/05/28 10:24:47;;;;;;;20.73;18.53;;;;;;;16.53;64.24;95069.41;5062334;28;20453;-68
2021/05/28 10:27:24;;;;;;;20.30;18.20;;;;;;;16.69;62.65;95064.69;5049572;28;20479;-65
2021/05/28 10:29:52;;;;;;;30.27;18.63;;;;;;;16.78;62.99;95061.09;5049016;28;20561;-69
2021/05/28 10:32:20;;;;;;;22.77;18.13;;;;;;;16.71;63.97;95066.00;5054626;28;20967;-73
2021/05/28 10:35:05;;;;;;;20.13;17.10;;;;;;;16.26;64.25;95060.56;5069424;28;20442;-71
2021/05/28 10:37:33;;;;;;;20.23;16.87;;;;;;;16.25;65.08;95059.78;5059204;28;20799;-68
2021/05/28 10:39:59;;;;;;;20.20;17.13;;;;;;;16.55;64.38;95056.69;5070160;28;20468;-69
2021/05/28 10:42:26;;;;;;;18.13;16.23;;;;;;;16.59;64.95;95062.97;5074117;28;20430;-68
2021/05/28 10:44:53;;;;;;;23.03;17.03;;;;;;;16.80;64.72;95066.91;5058754;28;20449;-71
2021/05/28 10:47:22;;;;;;;15.10;13.60;;;;;;;16.63;63.43;95063.97;5073147;28;20595;-69
2021/05/28 10:50:03;;;;;;;19.47;14.67;;;;;;;16.62;62.00;95067.72;5060301;28;21002;-67
2021/05/28 10:52:33;;;;;;;16.87;15.10;;;;;;;16.92;62.71;95067.22;5059680;28;20448;-70
2021/05/28 10:55:11;;;;;;;15.13;13.57;;;;;;;16.85;62.43;95050.94;5073573;28;20442;-71
2021/05/28 10:57:48;;;;;;;13.87;12.43;;;;;;;16.57;62.60;95048.50;5060107;28;20441;-68
2021/05/28 11:00:27;;;;;;;15.87;14.27;;;;;;;16.52;62.95;95059.13;5057706;28;20449;-72
2021/05/28 11:03:08;;;;;;;15.20;13.23;;;;;;;16.57;63.17;95059.06;5061672;28;20520;-69
2021/05/28 11:05:42;;;;;;;15.27;13.67;;;;;;;16.71;63.40;95066.00;5072975;28;20536;-72
2021/05/28 11:08:34;;;;;;;27.93;14.63;;;;;;;16.94;61.37;95059.78;5055290;28;20999;-67
2021/05/28 11:11:01;;;;;;;19.77;14.40;;;;;;;16.73;61.65;95058.53;5053047;28;20473;-68
2021/05/28 11:13:28;;;;;;;22.17;13.53;;;;;;;16.65;61.52;95045.97;5070383;28;20438;-69
2021/05/28 11:15:59;;;;;;;19.03;13.90;;;;;;;17.00;61.06;95052.53;5063346;28;20841;-68
2021/05/28 11:18:45;;;;;;;14.43;13.00;;;;;;;16.93;61.51;95058.19;5052165;28;20435;-72
2021/05/28 11:21:20;;;;;;;16.43;13.23;;;;;;;16.82;60.32;95056.78;5052701;28;20904;-74
2021/05/28 11:23:51;;;;;;;20.57;13.90;;;;;;;16.94;60.41;95059.78;5052136;28;20452;-71
2021/05/28 11:26:27;;;;;;;19.67;14.63;;;;;;;16.65;59.71;95051.25;5064822;28;20465;-70
2021/05/28 11:28:57;;;;;;;16.17;13.13;;;;;;;16.75;60.01;95064.31;5065837;28;20470;-71